Time;durP1;ratioP1;P1;durP2;ratioP2;P2;SDS_P1;SDS_P2;PMS_P1;PMS_P2;Temp;Humidity;BMP_temperature;BMP_pressure;BME280_temperature;BME280_humidity;BME280_pressure;Samples;Min_cycle;Max_cycle;Signal;HPM_P1;HPM_P2
2022/05/19 00:02:09;;;;;;;9.88;6.60;;;19.70;71.00;;;;;;5054052;28;20066;-14
2022/05/19 00:04:35;;;;;;;11.05;6.45;;;19.70;70.40;;;;;;5053750;28;20104;-14
2022/05/19 00:07:02;;;;;;;10.32;5.95;;;19.70;70.00;;;;;;5053654;28;20078;-14
2022/05/19 00:09:28;;;;;;;11.60;6.32;;;19.70;69.70;;;;;;5054037;28;20024;-15
2022/05/19 00:11:57;;;;;;;8.63;5.85;;;19.60;68.80;;;;;;5052600;28;20031;-14
2022/05/19 00:14:23;;;;;;;10.13;6.03;;;19.60;67.90;;;;;;5035199;28;20032;-14
2022/05/19 00:16:49;;;;;;;8.82;5.60;;;19.60;67.30;;;;;;5053554;28;20028;-14
2022/05/19 00:19:18;;;;;;;9.02;5.65;;;19.60;67.40;;;;;;5054009;28;20017;-15
2022/05/19 00:21:44;;;;;;;7.60;4.80;;;19.60;66.70;;;;;;5053691;28;20089;-14
2022/05/19 00:24:10;;;;;;;6.28;5.00;;;19.60;66.50;;;;;;5053461;28;20546;-15
2022/05/19 00:26:36;;;;;;;7.28;5.15;;;19.50;65.80;;;;;;5053153;28;20025;-16
2022/05/19 00:29:03;;;;;;;8.23;4.93;;;19.50;65.00;;;;;;5053347;28;20115;-13
2022/05/19 00:31:31;;;;;;;6.32;4.47;;;19.50;64.90;;;;;;5053219;28;20028;-14
2022/05/19 00:33:58;;;;;;;5.75;4.25;;;19.40;64.60;;;;;;5053215;28;20488;-14
2022/05/19 00:36:24;;;;;;;7.80;4.60;;;19.40;64.50;;;;;;5053130;28;20033;-14
2022/05/19 00:38:50;;;;;;;9.43;5.22;;;19.40;64.30;;;;;;5053510;28;20029;-15
2022/05/19 00:41:17;;;;;;;7.35;4.72;;;19.40;64.00;;;;;;5053160;28;20048;-14
2022/05/19 00:43:47;;;;;;;8.45;5.00;;;19.40;64.10;;;;;;5053109;28;20511;-15
2022/05/19 00:46:23;;;;;;;12.73;5.03;;;19.40;64.00;;;;;;5053433;28;20098;-14
2022/05/19 00:49:06;;;;;;;7.25;4.88;;;19.40;63.60;;;;;;5053928;28;20017;-14
2022/05/19 00:52:20;;;;;;;7.00;4.63;;;19.40;63.00;;;;;;5053098;28;20025;-14
2022/05/19 00:54:58;;;;;;;8.98;4.35;;;19.40;63.10;;;;;;4992295;28;20486;-14
2022/05/19 00:57:28;;;;;;;9.13;4.50;;;19.40;62.60;;;;;;4991865;28;20065;-14
2022/05/19 01:00:06;;;;;;;7.07;4.15;;;19.40;62.10;;;;;;4991696;28;20030;-14
2022/05/19 01:02:55;;;;;;;8.38;3.90;;;19.40;61.60;;;;;;4991493;28;20041;-14
2022/05/19 01:05:34;;;;;;;6.65;3.80;;;19.40;61.80;;;;;;4991754;28;20042;-17
2022/05/19 01:08:32;;;;;;;5.47;3.80;;;19.40;61.90;;;;;;4991913;28;20161;-14
2022/05/19 01:10:59;;;;;;;7.55;4.10;;;19.40;61.50;;;;;;4989008;28;20039;-14
2022/05/19 01:13:30;;;;;;;5.75;3.70;;;19.40;61.70;;;;;;4991856;28;20026;-15
2022/05/19 01:15:58;;;;;;;5.30;4.05;;;19.30;61.70;;;;;;4991439;28;20058;-14
2022/05/19 01:18:27;;;;;;;5.63;3.60;;;19.30;61.70;;;;;;4975065;28;20038;-14
2022/05/19 01:20:55;;;;;;;4.35;3.42;;;19.20;61.80;;;;;;4992030;28;20031;-14
2022/05/19 01:23:44;;;;;;;6.50;3.75;;;19.20;61.30;;;;;;4991829;28;20054;-14
2022/05/19 01:26:25;;;;;;;6.47;3.95;;;19.20;60.80;;;;;;4994645;28;20030;-14
2022/05/19 01:28:51;;;;;;;5.97;3.75;;;19.10;61.00;;;;;;5011750;28;20029;-15
2022/05/19 01:31:37;;;;;;;8.95;4.05;;;19.10;60.90;;;;;;5056578;28;20395;-14
2022/05/19 01:34:06;;;;;;;8.10;4.00;;;19.00;60.20;;;;;;5056616;28;20484;-15
2022/05/19 01:36:33;;;;;;;6.57;3.80;;;18.90;59.70;;;;;;5056349;28;20373;-15
2022/05/19 01:39:21;;;;;;;7.95;3.90;;;18.90;60.00;;;;;;5056868;28;20032;-15
2022/05/19 01:42:22;;;;;;;5.13;3.42;;;18.80;57.50;;;;;;5056858;28;20029;-14
2022/05/19 01:45:35;;;;;;;6.88;3.90;;;18.70;57.10;;;;;;5056148;28;20132;-16
2022/05/19 01:48:12;;;;;;;7.95;3.50;;;18.70;56.30;;;;;;5029537;28;20040;-15
2022/05/19 01:50:54;;;;;;;5.93;3.50;;;18.60;57.60;;;;;;5057042;28;20082;-14
2022/05/19 01:53:30;;;;;;;7.15;3.50;;;18.60;57.20;;;;;;5056636;28;20088;-14
2022/05/19 01:56:02;;;;;;;8.27;3.17;;;18.60;56.90;;;;;;5056548;28;20036;-16
2022/05/19 01:58:40;;;;;;;8.52;3.58;;;18.50;57.10;;;;;;5056113;28;20464;-16
2022/05/19 02:01:08;;;;;;;5.32;3.35;;;18.40;56.30;;;;;;5056112;28;20017;-16
2022/05/19 02:03:50;;;;;;;6.45;3.40;;;18.40;55.90;;;;;;5056394;28;20503;-16
2022/05/19 02:06:34;;;;;;;9.70;3.50;;;18.30;56.20;;;;;;5056118;28;20025;-15
2022/05/19 02:09:05;;;;;;;;;;;18.20;55.50;;;;;;5038778;28;20025;-16
2022/05/19 02:11:40;;;;;;;5.15;3.45;;;18.20;55.70;;;;;;5055978;28;19909;-14
2022/05/19 02:14:12;;;;;;;7.65;3.40;;;18.10;56.30;;;;;;5055935;28;20389;-14
2022/05/19 02:16:40;;;;;;;4.97;3.22;;;18.10;56.30;;;;;;5055972;28;20108;-16
2022/05/19 02:19:08;;;;;;;4.72;3.40;;;18.00;56.20;;;;;;5055807;28;20112;-14
2022/05/19 02:21:34;;;;;;;4.85;3.00;;;18.00;56.30;;;;;;5056113;28;20036;-16
2022/05/19 02:24:01;;;;;;;6.70;3.05;;;17.90;56.50;;;;;;5055706;28;20025;-15
2022/05/19 02:26:34;;;;;;;5.68;3.58;;;17.90;56.50;;;;;;5055782;28;20100;-15
2022/05/19 02:29:12;;;;;;;;;;;17.80;55.90;;;;;;5056104;28;20028;-15
2022/05/19 02:31:42;;;;;;;5.95;3.10;;;17.70;55.90;;;;;;5055687;28;19904;-14
2022/05/19 02:34:08;;;;;;;6.78;3.10;;;17.70;56.50;;;;;;5055497;28;20028;-14
2022/05/19 02:36:34;;;;;;;4.60;3.10;;;17.60;56.70;;;;;;5054916;28;20033;-16
2022/05/19 02:39:01;;;;;;;4.50;2.65;;;17.60;56.80;;;;;;5055761;28;20048;-16
2022/05/19 02:41:27;;;;;;;4.75;2.70;;;17.50;56.90;;;;;;5055353;28;20071;-16
2022/05/19 02:43:53;;;;;;;4.50;2.60;;;17.50;56.60;;;;;;5055060;28;20523;-16
2022/05/19 02:46:18;;;;;;;3.22;2.85;;;17.50;56.80;;;;;;5054960;28;20029;-15
2022/05/19 02:48:45;;;;;;;5.20;2.75;;;17.40;56.90;;;;;;5055305;28;20029;-16
2022/05/19 02:51:11;;;;;;;6.40;3.20;;;17.40;57.00;;;;;;5055742;28;20025;-14
2022/05/19 02:53:37;;;;;;;5.35;2.58;;;17.40;57.20;;;;;;5055116;28;20143;-17
2022/05/19 02:56:03;;;;;;;5.18;2.90;;;17.30;57.30;;;;;;5055128;28;20060;-14
2022/05/19 02:58:29;;;;;;;5.63;2.70;;;17.20;57.60;;;;;;5054949;28;20029;-14
2022/05/19 03:00:55;;;;;;;3.47;2.40;;;17.20;57.80;;;;;;5054878;28;20029;-14
2022/05/19 03:03:21;;;;;;;5.10;2.70;;;17.10;57.80;;;;;;5055017;28;20024;-16
2022/05/19 03:05:48;;;;;;;3.38;2.72;;;17.10;57.90;;;;;;5055234;28;20049;-16
2022/05/19 03:08:14;;;;;;;4.68;2.45;;;17.10;58.10;;;;;;5054721;28;20477;-19
2022/05/19 03:10:42;;;;;;;5.10;2.67;;;17.00;58.20;;;;;;5054841;28;20021;-16
2022/05/19 03:13:20;;;;;;;3.47;2.45;;;17.00;58.30;;;;;;5053799;28;20029;-14
2022/05/19 03:15:46;;;;;;;3.00;2.20;;;17.00;58.20;;;;;;5054745;28;20029;-15
2022/05/19 03:18:13;;;;;;;5.18;2.42;;;16.90;58.20;;;;;;5054679;28;20116;-14
2022/05/19 03:20:39;;;;;;;4.05;2.55;;;16.90;58.20;;;;;;5055344;28;20029;-16
2022/05/19 03:23:05;;;;;;;2.75;2.40;;;16.90;58.20;;;;;;5055059;28;20082;-16
2022/05/19 03:25:31;;;;;;;3.63;2.55;;;16.80;58.40;;;;;;5054898;28;20032;-16
2022/05/19 03:27:57;;;;;;;5.10;3.03;;;16.80;58.50;;;;;;5054646;28;20033;-16
2022/05/19 03:30:23;;;;;;;5.15;3.35;;;16.70;58.60;;;;;;5054494;28;20039;-14
2022/05/19 03:32:49;;;;;;;5.13;2.70;;;16.60;58.60;;;;;;5054618;28;20056;-16
2022/05/19 03:35:16;;;;;;;3.28;2.42;;;16.60;58.50;;;;;;5054667;28;20068;-15
2022/05/19 03:37:43;;;;;;;4.18;2.83;;;16.70;58.50;;;;;;5054518;28;20025;-14
2022/05/19 03:40:11;;;;;;;4.35;2.90;;;16.70;58.40;;;;;;5054291;28;20021;-16
2022/05/19 03:42:37;;;;;;;6.65;3.28;;;16.70;58.60;;;;;;5054047;28;20116;-16
2022/05/19 03:45:04;;;;;;;4.03;3.10;;;16.60;58.40;;;;;;5054078;28;20111;-15
2022/05/19 03:47:30;;;;;;;3.60;3.20;;;16.60;58.40;;;;;;5053679;28;20064;-15
2022/05/19 03:49:56;;;;;;;4.85;3.10;;;16.60;58.20;;;;;;5054332;28;20043;-16
2022/05/19 03:52:23;;;;;;;7.55;3.05;;;16.60;58.10;;;;;;5053802;28;20062;-14
2022/05/19 03:54:48;;;;;;;4.35;2.78;;;16.60;58.40;;;;;;5054710;28;20107;-15
2022/05/19 03:57:16;;;;;;;5.32;3.08;;;16.70;58.50;;;;;;5053853;28;20374;-14
2022/05/19 03:59:42;;;;;;;5.38;3.25;;;16.70;58.20;;;;;;5036200;28;20120;-15
2022/05/19 04:02:08;;;;;;;5.35;3.03;;;16.70;58.00;;;;;;5054153;28;20376;-14
2022/05/19 04:04:34;;;;;;;7.75;3.10;;;16.80;58.10;;;;;;5053497;28;20029;-14
2022/05/19 04:07:00;;;;;;;5.97;3.47;;;16.80;57.60;;;;;;5054062;28;20035;-17
2022/05/19 04:09:26;;;;;;;4.97;3.10;;;16.90;57.20;;;;;;5054052;28;20427;-15
2022/05/19 04:11:52;;;;;;;9.60;3.10;;;16.90;57.30;;;;;;5053830;28;20013;-16
2022/05/19 04:14:19;;;;;;;7.10;3.45;;;17.00;56.60;;;;;;5053366;28;20384;-15
2022/05/19 04:16:49;;;;;;;6.40;3.20;;;17.10;56.30;;;;;;5053537;28;20048;-15
2022/05/19 04:19:17;;;;;;;4.90;2.85;;;17.30;56.70;;;;;;5053565;28;20027;-15
2022/05/19 04:21:44;;;;;;;5.32;3.33;;;17.40;56.60;;;;;;5053793;28;20032;-15
2022/05/19 04:24:11;;;;;;;5.80;2.72;;;17.40;56.70;;;;;;5053767;28;20036;-16
2022/05/19 04:26:38;;;;;;;3.58;2.65;;;17.60;56.20;;;;;;5053379;28;20025;-15
2022/05/19 04:29:04;;;;;;;6.43;2.90;;;17.70;56.30;;;;;;5053658;28;20025;-15
2022/05/19 04:31:31;;;;;;;4.07;3.08;;;17.80;55.70;;;;;;5053490;28;20032;-15
2022/05/19 04:33:57;;;;;;;5.13;2.90;;;17.90;55.70;;;;;;5053564;28;20028;-16
2022/05/19 04:36:23;;;;;;;3.85;2.88;;;18.00;56.00;;;;;;5053063;28;20119;-16
2022/05/19 04:38:49;;;;;;;6.25;3.05;;;18.10;56.30;;;;;;5053697;28;20112;-14
2022/05/19 04:41:15;;;;;;;4.40;3.10;;;18.30;56.10;;;;;;5053191;28;20476;-15
2022/05/19 04:43:41;;;;;;;6.35;3.30;;;18.40;55.90;;;;;;5052856;28;20127;-15
2022/05/19 04:46:07;;;;;;;4.50;2.65;;;18.40;55.30;;;;;;5053148;28;20028;-15
2022/05/19 04:48:33;;;;;;;6.60;3.40;;;18.50;55.40;;;;;;5053042;28;20104;-14
2022/05/19 04:50:59;;;;;;;6.95;2.90;;;18.60;55.60;;;;;;5053068;28;20111;-15
2022/05/19 04:53:26;;;;;;;4.47;2.92;;;18.80;55.50;;;;;;5052967;28;20392;-14
2022/05/19 04:55:54;;;;;;;4.68;3.30;;;18.90;55.40;;;;;;5053480;28;20123;-14
2022/05/19 04:58:21;;;;;;;3.97;2.90;;;18.90;55.30;;;;;;5052875;28;20037;-15
2022/05/19 05:00:49;;;;;;;7.82;3.50;;;19.00;55.60;;;;;;5053014;28;20033;-14
2022/05/19 05:03:16;;;;;;;4.70;2.80;;;19.10;56.10;;;;;;5053204;28;20040;-14
2022/05/19 05:05:43;;;;;;;7.03;3.40;;;19.20;55.50;;;;;;5053163;28;20492;-13
2022/05/19 05:08:09;;;;;;;6.20;3.17;;;19.30;55.10;;;;;;5052808;28;20028;-15
2022/05/19 05:10:35;;;;;;;4.40;3.05;;;19.30;54.90;;;;;;5052653;28;20086;-14
2022/05/19 05:13:10;;;;;;;5.00;2.90;;;19.30;54.90;;;;;;5053205;28;20033;-15
2022/05/19 05:15:36;;;;;;;4.97;2.95;;;19.40;55.20;;;;;;5053030;28;20029;-14
2022/05/19 05:18:05;;;;;;;6.43;3.08;;;19.40;54.70;;;;;;5052823;28;20029;-14
2022/05/19 05:20:32;;;;;;;6.72;3.20;;;19.50;54.50;;;;;;5052907;28;20021;-15
2022/05/19 05:22:57;;;;;;;4.25;3.38;;;19.40;55.20;;;;;;5052750;28;20029;-14
2022/05/19 05:25:24;;;;;;;5.93;3.35;;;19.50;54.50;;;;;;5052944;28;20092;-15
2022/05/19 05:27:50;;;;;;;4.80;3.10;;;19.50;54.80;;;;;;5052774;28;20036;-15
2022/05/19 05:30:16;;;;;;;4.72;2.70;;;19.50;54.70;;;;;;5052566;28;20025;-15
2022/05/19 05:32:42;;;;;;;4.75;3.20;;;19.60;55.00;;;;;;5051375;28;20071;-14
2022/05/19 05:35:09;;;;;;;7.45;3.42;;;19.70;54.50;;;;;;5052877;28;20392;-14
2022/05/19 05:37:36;;;;;;;6.15;3.28;;;19.80;54.60;;;;;;5052943;28;20103;-15
2022/05/19 05:40:06;;;;;;;6.78;3.00;;;19.90;54.40;;;;;;5052689;28;20078;-15
2022/05/19 05:42:34;;;;;;;5.65;3.13;;;19.90;54.10;;;;;;5052397;28;20054;-13
2022/05/19 05:45:01;;;;;;;4.00;3.05;;;20.00;53.90;;;;;;5052262;28;20061;-14
2022/05/19 05:47:27;;;;;;;4.85;2.72;;;20.10;53.50;;;;;;5053019;28;20031;-13
2022/05/19 05:49:53;;;;;;;5.45;3.13;;;20.20;53.80;;;;;;5052545;28;20043;-14
2022/05/19 05:52:19;;;;;;;7.63;3.40;;;20.30;54.00;;;;;;5052755;28;20033;-15
2022/05/19 05:54:45;;;;;;;6.10;2.85;;;20.40;53.40;;;;;;5052694;28;20106;-14
2022/05/19 05:57:14;;;;;;;5.75;3.15;;;20.50;52.80;;;;;;5052430;28;20033;-13
2022/05/19 05:59:41;;;;;;;7.15;3.45;;;20.50;52.70;;;;;;5052352;28;20029;-16
2022/05/19 06:02:07;;;;;;;3.78;3.17;;;20.60;52.40;;;;;;5052560;28;20027;-15
2022/05/19 06:04:33;;;;;;;7.10;3.20;;;20.70;52.40;;;;;;5052170;28;20025;-14
2022/05/19 06:07:00;;;;;;;4.45;3.00;;;20.80;51.80;;;;;;5052362;28;20028;-14
2022/05/19 06:09:25;;;;;;;7.38;3.28;;;20.90;51.70;;;;;;5052605;28;20021;-14
2022/05/19 06:11:52;;;;;;;6.78;3.55;;;20.90;52.10;;;;;;5054739;28;20473;-14
2022/05/19 06:14:18;;;;;;;5.75;3.30;;;21.00;51.50;;;;;;5055813;28;20020;-14
2022/05/19 06:16:44;;;;;;;8.73;3.17;;;21.10;50.80;;;;;;5056077;28;20540;-15
2022/05/19 06:19:10;;;;;;;7.35;3.15;;;21.20;51.20;;;;;;5055888;28;20039;-14
2022/05/19 06:21:39;;;;;;;8.20;3.13;;;21.30;51.40;;;;;;5055755;28;20040;-13
2022/05/19 06:24:08;;;;;;;6.55;3.13;;;21.40;51.30;;;;;;5056022;28;20093;-13
2022/05/19 06:26:39;;;;;;;4.60;2.90;;;21.50;52.10;;;;;;5055661;28;20040;-14
2022/05/19 06:29:07;;;;;;;7.10;3.00;;;21.70;51.80;;;;;;5055837;28;20029;-14
2022/05/19 06:31:33;;;;;;;3.42;2.72;;;21.80;51.20;;;;;;5055517;28;20091;-14
2022/05/19 06:34:01;;;;;;;8.23;3.35;;;21.90;51.00;;;;;;5055880;28;20094;-14
2022/05/19 06:36:28;;;;;;;7.43;3.22;;;22.00;50.00;;;;;;5055256;28;20373;-14
2022/05/19 06:38:54;;;;;;;4.35;3.28;;;22.20;49.70;;;;;;5056369;28;20119;-15
2022/05/19 06:44:05;;;;;;;3.72;2.55;;;22.40;49.90;;;;;;5055320;28;20106;-13
2022/05/19 06:46:31;;;;;;;7.72;3.60;;;22.60;49.40;;;;;;5055328;28;20036;-14
2022/05/19 06:49:02;;;;;;;4.50;3.00;;;22.70;48.80;;;;;;5055249;28;20566;-14
2022/05/19 06:51:29;;;;;;;5.63;3.10;;;22.80;49.20;;;;;;5055569;28;20479;-15
2022/05/19 06:53:55;;;;;;;6.25;3.00;;;22.90;48.80;;;;;;5037303;28;20025;-14
2022/05/19 06:56:22;;;;;;;4.38;3.00;;;23.00;48.90;;;;;;5055220;28;20044;-14
2022/05/19 06:58:48;;;;;;;5.10;2.92;;;23.20;48.00;;;;;;5055513;28;20021;-15
2022/05/19 07:01:14;;;;;;;3.55;2.63;;;23.40;48.50;;;;;;5054964;28;20029;-14
2022/05/19 07:03:40;;;;;;;7.95;2.88;;;23.50;47.50;;;;;;5055245;28;20013;-13
2022/05/19 07:06:06;;;;;;;8.55;3.10;;;23.70;47.30;;;;;;5055241;28;20036;-13
2022/05/19 07:08:32;;;;;;;9.00;2.97;;;23.90;45.40;;;;;;5054952;28;20427;-14
2022/05/19 07:10:59;;;;;;;4.97;2.83;;;24.20;44.30;;;;;;5055471;28;20033;-16
2022/05/19 07:13:24;;;;;;;6.75;2.88;;;24.40;44.20;;;;;;5055053;28;20060;-13
2022/05/19 07:15:50;;;;;;;6.97;3.05;;;24.50;43.80;;;;;;5054796;28;20453;-13
2022/05/19 07:18:16;;;;;;;6.90;3.35;;;24.70;44.10;;;;;;5054477;28;20028;-14
2022/05/19 07:20:47;;;;;;;6.45;3.05;;;24.80;43.70;;;;;;5054622;28;20033;-13
2022/05/19 07:23:24;;;;;;;5.80;2.80;;;24.80;43.20;;;;;;5053636;28;20484;-14
2022/05/19 07:25:51;;;;;;;5.00;2.90;;;24.90;43.70;;;;;;5054798;28;20052;-14
2022/05/19 07:28:21;;;;;;;3.70;2.85;;;25.10;43.40;;;;;;5054560;28;20028;-13
2022/05/19 07:30:49;;;;;;;8.23;3.17;;;25.20;43.80;;;;;;5054709;28;20036;-14
2022/05/19 07:33:15;;;;;;;6.63;3.20;;;25.30;42.60;;;;;;5054907;28;20208;-13
2022/05/19 07:35:46;;;;;;;4.40;3.10;;;25.50;43.40;;;;;;5054672;28;20037;-13
2022/05/19 07:38:17;;;;;;;10.75;3.08;;;25.50;42.20;;;;;;5054613;28;20099;-13
2022/05/19 07:40:44;;;;;;;5.25;2.95;;;25.60;41.00;;;;;;5055105;28;20052;-13
2022/05/19 07:45:54;;;;;;;5.30;2.83;;;25.90;41.30;;;;;;5054356;28;20087;-13
2022/05/19 07:48:21;;;;;;;5.32;3.00;;;26.00;40.00;;;;;;5054242;28;20468;-15
2022/05/19 07:50:46;;;;;;;7.20;2.90;;;26.30;38.00;;;;;;5054397;28;20472;-14
2022/05/19 07:53:13;;;;;;;3.13;2.83;;;26.40;38.00;;;;;;5054209;28;20055;-13
2022/05/19 07:55:39;;;;;;;4.57;2.80;;;26.50;38.10;;;;;;5054304;28;20025;-13
2022/05/19 07:58:05;;;;;;;4.72;3.00;;;26.60;38.60;;;;;;5054205;28;20029;-13
2022/05/19 08:00:31;;;;;;;8.82;2.97;;;26.80;38.50;;;;;;5052559;28;20021;-14
2022/05/19 08:02:57;;;;;;;4.03;2.90;;;26.90;38.30;;;;;;5053873;28;20606;-13
2022/05/19 08:05:23;;;;;;;6.72;2.95;;;27.00;38.00;;;;;;5053818;28;20116;-13
2022/05/19 08:07:49;;;;;;;3.95;2.60;;;27.10;38.30;;;;;;5053949;28;20029;-14
2022/05/19 08:10:23;;;;;;;4.22;2.70;;;27.30;37.30;;;;;;5053405;28;20029;-14
2022/05/19 08:15:37;;;;;;;3.95;2.63;;;27.70;36.50;;;;;;5053947;28;20507;-14
2022/05/19 08:18:24;;;;;;;2.90;2.20;;;27.90;36.00;;;;;;5053589;28;20475;-13
2022/05/19 08:20:54;;;;;;;6.43;2.85;;;28.00;35.00;;;;;;5053532;28;20025;-14
2022/05/19 08:23:29;;;;;;;5.88;2.72;;;28.20;36.00;;;;;;5053534;28;20033;-13
2022/05/19 08:25:56;;;;;;;6.78;2.95;;;28.20;36.30;;;;;;5053750;28;20029;-13
2022/05/19 08:28:29;;;;;;;5.00;2.50;;;28.30;36.60;;;;;;5053232;28;20021;-13
2022/05/19 08:31:04;;;;;;;6.05;2.92;;;28.50;36.00;;;;;;5053345;28;20041;-13
2022/05/19 08:33:30;;;;;;;5.03;2.60;;;28.70;34.30;;;;;;5035423;28;20028;-15
2022/05/19 08:35:57;;;;;;;5.80;3.00;;;28.80;35.80;;;;;;5053597;28;20067;-13
2022/05/19 08:38:23;;;;;;;5.90;2.60;;;28.60;34.80;;;;;;5053014;28;20033;-14
2022/05/19 08:40:53;;;;;;;4.13;2.50;;;28.40;34.70;;;;;;5053568;28;20052;-14
2022/05/19 08:43:24;;;;;;;7.45;2.67;;;28.30;35.30;;;;;;5053185;28;20029;-13
2022/05/19 08:45:56;;;;;;;4.25;2.70;;;28.40;35.10;;;;;;5053001;28;20382;-14
2022/05/19 08:48:25;;;;;;;5.07;2.80;;;28.40;35.90;;;;;;5052998;28;20556;-15
2022/05/19 08:50:58;;;;;;;6.13;2.95;;;28.50;36.00;;;;;;5053620;28;20033;-13
2022/05/19 08:53:33;;;;;;;3.50;2.47;;;28.60;36.50;;;;;;5053035;28;20056;-13
2022/05/19 08:56:12;;;;;;;5.80;2.90;;;28.90;35.70;;;;;;5053432;28;20037;-14
2022/05/19 08:59:21;;;;;;;5.30;2.58;;;29.00;34.10;;;;;;5052973;28;20021;-13
2022/05/19 09:01:54;;;;;;;3.80;2.38;;;29.30;33.90;;;;;;4972428;28;20054;-13
2022/05/19 09:04:30;;;;;;;6.18;2.47;;;29.50;34.20;;;;;;5039871;28;20398;-14
2022/05/19 09:10:29;;;;;;;6.05;2.58;;;30.00;33.70;;;;;;5053316;28;20099;-13
2022/05/19 09:13:34;;;;;;;3.45;2.50;;;30.30;33.90;;;;;;5053098;28;20071;-14
2022/05/19 09:16:13;;;;;;;8.13;2.53;;;30.60;32.10;;;;;;5051626;28;20064;-13
2022/05/19 09:18:43;;;;;;;5.68;2.80;;;30.70;32.70;;;;;;5053413;28;20029;-13
2022/05/19 09:21:10;;;;;;;4.65;2.50;;;30.80;32.70;;;;;;5053175;28;20058;-13
2022/05/19 09:23:36;;;;;;;6.13;2.90;;;30.80;32.50;;;;;;5052981;28;20025;-13
2022/05/19 09:26:41;;;;;;;4.32;2.78;;;30.90;31.60;;;;;;5053171;28;20099;-13
2022/05/19 09:29:11;;;;;;;4.78;2.42;;;30.50;31.50;;;;;;5052808;28;20562;-13
2022/05/19 09:31:49;;;;;;;3.30;2.78;;;30.40;33.10;;;;;;5052657;28;20033;-13
2022/05/19 09:34:16;;;;;;;6.55;3.15;;;30.50;33.50;;;;;;5052581;28;20032;-13
2022/05/19 09:37:06;;;;;;;7.13;2.92;;;30.70;33.30;;;;;;5053437;28;20025;-14
2022/05/19 09:39:41;;;;;;;6.70;3.00;;;30.70;32.00;;;;;;5053029;28;20029;-13
2022/05/19 09:42:10;;;;;;;3.63;2.60;;;30.50;34.00;;;;;;5052809;28;20100;-14
2022/05/19 09:44:43;;;;;;;7.05;3.00;;;30.40;34.20;;;;;;5052219;28;20129;-13
2022/05/19 09:47:15;;;;;;;;;;;30.40;33.00;;;;;;5056056;28;20025;-13
2022/05/19 09:49:45;;;;;;;7.18;2.97;;;30.70;31.10;;;;;;5057045;28;19905;-15
2022/05/19 09:52:18;;;;;;;5.25;2.75;;;30.70;32.40;;;;;;5056691;28;20033;-13
2022/05/19 09:54:52;;;;;;;3.85;2.80;;;30.90;31.40;;;;;;5056947;28;20393;-14
2022/05/19 09:57:33;;;;;;;5.30;2.72;;;31.10;31.80;;;;;;5056658;28;20048;-14
2022/05/19 10:00:04;;;;;;;3.50;2.63;;;31.20;32.00;;;;;;5056276;28;20025;-14
2022/05/19 10:02:36;;;;;;;5.50;3.05;;;31.40;31.70;;;;;;5056005;28;20017;-14
2022/05/19 10:05:18;;;;;;;4.13;2.50;;;31.60;31.80;;;;;;5056222;28;20124;-13
2022/05/19 10:07:49;;;;;;;5.53;2.58;;;31.80;30.80;;;;;;5056377;28;20033;-13
2022/05/19 10:10:29;;;;;;;4.78;2.90;;;31.90;30.60;;;;;;5056111;28;20115;-14
2022/05/19 10:13:02;;;;;;;2.42;2.22;;;32.00;30.40;;;;;;5056001;28;20025;-13
2022/05/19 10:15:53;;;;;;;5.20;3.05;;;32.00;31.50;;;;;;5055917;28;20026;-13
2022/05/19 10:18:36;;;;;;;4.22;2.80;;;32.20;31.40;;;;;;5055739;28;20028;-14
2022/05/19 10:21:17;;;;;;;5.10;2.80;;;31.90;31.60;;;;;;5056409;28;20029;-14
2022/05/19 10:23:49;;;;;;;6.65;2.67;;;32.10;30.70;;;;;;5055832;28;20033;-13
2022/05/19 10:26:41;;;;;;;6.05;2.72;;;32.30;31.00;;;;;;5055792;28;20491;-14
2022/05/19 10:32:48;;;;;;;8.02;2.90;;;32.90;30.30;;;;;;5055943;28;20040;-13
2022/05/19 10:35:20;;;;;;;5.88;3.20;;;33.00;30.60;;;;;;5054912;28;20463;-13
2022/05/19 10:38:04;;;;;;;9.52;3.10;;;33.20;30.30;;;;;;5055580;28;20033;-14
2022/05/19 10:41:05;;;;;;;7.68;3.10;;;33.10;30.70;;;;;;5055357;28;20104;-13
2022/05/19 10:44:16;;;;;;;4.97;3.25;;;32.80;32.40;;;;;;5037472;28;20450;-14
2022/05/19 10:46:54;;;;;;;7.57;3.35;;;32.80;31.40;;;;;;4974514;28;20058;-14
2022/05/19 10:49:46;;;;;;;4.20;3.00;;;33.10;30.00;;;;;;4974577;28;20027;-13
2022/05/19 10:52:22;;;;;;;4.90;2.70;;;33.30;29.90;;;;;;4974791;28;20109;-14
2022/05/19 10:55:13;;;;;;;4.38;2.63;;;33.40;30.50;;;;;;4974421;28;20110;-13
2022/05/19 10:57:52;;;;;;;8.52;3.10;;;33.80;29.70;;;;;;4974368;28;20057;-14
2022/05/19 11:00:47;;;;;;;4.43;2.88;;;34.20;30.70;;;;;;4974155;28;20105;-14
2022/05/19 11:03:36;;;;;;;5.97;3.05;;;34.30;29.50;;;;;;4974362;28;20062;-13
2022/05/19 11:06:28;;;;;;;4.13;2.70;;;34.60;28.30;;;;;;4974309;28;20074;-14
2022/05/19 11:09:21;;;;;;;7.72;3.28;;;34.70;28.70;;;;;;4935680;28;20035;-14
2022/05/19 11:12:17;;;;;;;3.85;2.78;;;34.70;28.40;;;;;;4974494;28;20094;-14
2022/05/19 11:15:09;;;;;;;4.25;2.75;;;34.80;29.20;;;;;;4974392;28;20031;-14
2022/05/19 11:18:03;;;;;;;5.43;2.50;;;34.90;29.00;;;;;;5022331;28;20044;-14
2022/05/19 11:20:53;;;;;;;4.55;2.75;;;35.20;29.60;;;;;;5054457;28;20500;-14
2022/05/19 11:23:33;;;;;;;8.05;3.20;;;35.40;28.90;;;;;;5055039;28;20021;-13
2022/05/19 11:26:26;;;;;;;7.03;3.10;;;35.80;27.90;;;;;;5054678;28;20032;-14
2022/05/19 11:29:12;;;;;;;;;;;35.90;27.90;;;;;;5054982;28;20021;-14
2022/05/19 11:32:03;;;;;;;5.95;2.50;;;36.00;26.60;;;;;;5053882;28;19905;-14
2022/05/19 11:34:32;;;;;;;4.10;2.67;;;35.90;27.90;;;;;;5054306;28;20024;-14
2022/05/19 11:37:13;;;;;;;6.00;2.88;;;36.10;27.20;;;;;;5054861;28;20099;-14
2022/05/19 11:39:59;;;;;;;4.47;2.78;;;36.40;26.70;;;;;;5054424;28;20461;-14
2022/05/19 11:43:02;;;;;;;4.18;2.83;;;36.70;26.80;;;;;;5054370;28;20036;-14
2022/05/19 11:45:35;;;;;;;7.90;2.97;;;37.00;26.50;;;;;;5054160;28;20532;-13
2022/05/19 11:57:29;;;;;;;8.40;3.05;;;36.90;26.80;;;;;;5054431;28;20039;-14
2022/05/19 11:59:58;;;;;;;5.18;2.95;;;37.00;26.40;;;;;;5054370;28;20039;-14
2022/05/19 12:02:38;;;;;;;3.85;2.78;;;36.90;27.00;;;;;;5053708;28;20027;-13
2022/05/19 12:05:22;;;;;;;5.05;2.80;;;37.00;27.10;;;;;;5054380;28;20467;-14
2022/05/19 12:07:54;;;;;;;3.85;2.83;;;37.30;26.10;;;;;;5054010;28;20546;-14
2022/05/19 12:10:33;;;;;;;3.28;2.65;;;37.50;26.40;;;;;;5053357;28;20033;-14
2022/05/19 12:13:00;;;;;;;5.28;2.80;;;37.70;26.50;;;;;;5054155;28;20035;-14
2022/05/19 12:15:37;;;;;;;3.63;2.85;;;37.90;25.70;;;;;;5053881;28;20037;-14
2022/05/19 12:18:11;;;;;;;5.93;3.30;;;37.90;25.50;;;;;;5053663;28;20025;-14
2022/05/19 12:20:43;;;;;;;5.43;3.05;;;37.40;25.60;;;;;;5053695;28;20028;-13
2022/05/19 12:23:20;;;;;;;4.57;3.30;;;36.90;26.50;;;;;;5053578;28;20075;-13
2022/05/19 12:25:51;;;;;;;10.63;2.53;;;36.50;26.70;;;;;;5053832;28;20025;-14
2022/05/19 12:28:19;;;;;;;4.05;2.80;;;36.20;27.60;;;;;;5053254;28;20481;-14
2022/05/19 12:34:02;;;;;;;4.78;2.70;;;36.70;26.40;;;;;;5053485;28;20503;-13
2022/05/19 12:36:30;;;;;;;3.60;2.80;;;37.00;26.80;;;;;;5053246;28;20508;-14
2022/05/19 12:39:18;;;;;;;6.05;2.90;;;37.40;26.00;;;;;;5035434;28;20060;-14
2022/05/19 12:41:50;;;;;;;4.00;2.85;;;37.40;25.40;;;;;;5053321;28;20124;-14
2022/05/19 12:44:35;;;;;;;7.57;3.13;;;37.10;25.90;;;;;;5052961;28;20052;-14
2022/05/19 12:47:16;;;;;;;5.30;2.65;;;36.90;26.20;;;;;;5053193;28;20373;-14
2022/05/19 12:50:09;;;;;;;4.07;2.75;;;37.00;26.60;;;;;;5053550;28;20036;-13
2022/05/19 12:52:56;;;;;;;4.03;2.42;;;37.20;26.00;;;;;;5016062;28;20517;-14
2022/05/19 12:55:22;;;;;;;6.03;3.05;;;37.40;26.20;;;;;;5053107;28;20044;-14
2022/05/19 12:57:54;;;;;;;6.40;3.00;;;37.70;25.80;;;;;;5053095;28;20033;-14
2022/05/19 13:00:41;;;;;;;5.28;3.03;;;37.90;25.80;;;;;;5053125;28;20123;-14
2022/05/19 13:03:24;;;;;;;4.25;2.83;;;38.00;26.30;;;;;;5053469;28;20052;-14
2022/05/19 13:05:49;;;;;;;;;;;38.10;25.90;;;;;;5053776;28;20033;-14
2022/05/19 13:08:25;;;;;;;4.47;2.75;;;38.00;26.30;;;;;;5052939;28;20421;-14
2022/05/19 13:10:52;;;;;;;4.70;2.95;;;38.10;26.00;;;;;;5053296;28;20040;-13
2022/05/19 13:13:27;;;;;;;3.90;2.75;;;38.00;26.20;;;;;;5053155;28;20074;-14
2022/05/19 13:16:00;;;;;;;9.13;3.20;;;38.00;26.30;;;;;;5052861;28;20041;-13
2022/05/19 13:18:34;;;;;;;4.95;2.88;;;38.00;26.00;;;;;;5052963;28;20067;-13
2022/05/19 13:21:07;;;;;;;5.85;3.10;;;37.70;25.90;;;;;;5054308;28;20393;-13
2022/05/19 13:23:37;;;;;;;6.88;2.90;;;37.30;26.60;;;;;;5057357;28;20101;-14
2022/05/19 13:26:08;;;;;;;4.45;2.80;;;37.20;26.80;;;;;;5057225;28;20159;-14
2022/05/19 13:31:21;;;;;;;10.00;2.90;;;37.10;26.90;;;;;;5056831;28;20040;-14
2022/05/19 13:34:07;;;;;;;4.30;2.90;;;36.90;27.20;;;;;;5056686;28;20496;-14
2022/05/19 13:36:37;;;;;;;4.22;2.97;;;36.20;27.60;;;;;;5056568;28;20499;-13
2022/05/19 13:39:08;;;;;;;5.60;2.97;;;35.90;28.00;;;;;;5056662;28;20025;-14
2022/05/19 13:41:40;;;;;;;6.10;3.10;;;35.80;28.30;;;;;;5056650;28;20055;-14
2022/05/19 13:44:10;;;;;;;5.60;3.28;;;35.90;28.00;;;;;;5056657;28;20052;-14
2022/05/19 13:46:39;;;;;;;6.35;3.00;;;36.00;27.90;;;;;;5056342;28;20396;-13